Time;durP1;ratioP1;P1;durP2;ratioP2;P2;SDS_P1;SDS_P2;PMS_P1;PMS_P2;Temp;Humidity;BMP_temperature;BMP_pressure;BME280_temperature;BME280_humidity;BME280_pressure;Samples;Min_cycle;Max_cycle;Signal;HPM_P1;HPM_P2
2023/06/06 00:01:05;;;;;;;13.52;7.45;;;;;;;17.93;61.35;98685.56;5051519;28;20032;-71
2023/06/06 00:03:31;;;;;;;9.48;7.28;;;;;;;17.93;61.55;98687.56;5053596;28;20036;-70
2023/06/06 00:05:59;;;;;;;9.88;7.25;;;;;;;17.92;61.88;98683.16;5052187;28;20105;-70
2023/06/06 00:08:25;;;;;;;9.88;7.68;;;;;;;17.92;61.86;98681.22;5049079;28;20461;-70
2023/06/06 00:10:51;;;;;;;10.43;7.45;;;;;;;17.91;61.94;98673.22;5054010;28;20017;-71
2023/06/06 00:13:18;;;;;;;13.68;7.53;;;;;;;17.89;62.13;98668.00;5052565;28;20103;-70
2023/06/06 00:15:44;;;;;;;12.23;7.80;;;;;;;17.89;62.38;98664.41;5051639;28;20025;-70
2023/06/06 00:18:11;;;;;;;12.63;7.25;;;;;;;17.89;62.31;98664.41;5053913;28;20087;-71
2023/06/06 00:20:38;;;;;;;13.73;7.82;;;;;;;17.86;62.28;98658.38;5054007;28;20021;-71
2023/06/06 00:23:04;;;;;;;9.48;7.38;;;;;;;17.83;62.41;98656.28;5053987;28;20025;-71
2023/06/06 00:25:30;;;;;;;9.13;6.68;;;;;;;17.81;62.53;98655.03;5052989;28;20473;-70
2023/06/06 00:27:55;;;;;;;8.65;6.35;;;;;;;17.78;62.63;98656.50;5044790;28;20029;-71
2023/06/06 00:30:21;;;;;;;8.43;6.63;;;;;;;17.76;62.42;98658.81;5054565;28;20086;-71
2023/06/06 00:32:46;;;;;;;7.97;6.50;;;;;;;17.72;62.42;98657.88;5054092;28;20087;-70
2023/06/06 00:35:12;;;;;;;10.02;6.45;;;;;;;17.70;62.56;98649.09;5053995;28;20029;-71
2023/06/06 00:37:37;;;;;;;9.05;6.40;;;;;;;17.67;62.56;98649.75;5054412;28;20112;-70
2023/06/06 00:40:04;;;;;;;8.63;5.82;;;;;;;17.64;62.10;98644.91;5053357;28;20048;-70
2023/06/06 00:42:30;;;;;;;8.98;5.82;;;;;;;17.60;62.36;98643.94;5053813;28;20229;-70
2023/06/06 00:44:56;;;;;;;5.85;4.75;;;;;;;17.57;62.03;98645.41;5054121;28;20025;-70
2023/06/06 00:47:21;;;;;;;8.23;4.70;;;;;;;17.54;61.64;98646.91;5053323;28;20079;-71
2023/06/06 00:49:48;;;;;;;5.70;3.65;;;;;;;17.51;61.54;98642.03;5053696;28;20036;-71
2023/06/06 00:52:15;;;;;;;5.10;3.33;;;;;;;17.50;61.31;98636.84;5054043;28;20025;-70
2023/06/06 00:54:42;;;;;;;4.63;3.25;;;;;;;17.45;60.98;98635.06;5053822;28;20032;-70
2023/06/06 00:57:09;;;;;;;5.00;3.10;;;;;;;17.41;60.72;98634.13;5053792;28;20175;-70
2023/06/06 00:59:37;;;;;;;4.60;3.00;;;;;;;17.37;60.22;98630.41;5053690;28;20040;-70
2023/06/06 01:02:09;;;;;;;4.38;2.70;;;;;;;17.34;60.19;98642.16;5053119;28;20119;-70
2023/06/06 01:04:39;;;;;;;4.80;3.10;;;;;;;17.32;59.60;98638.94;5053847;28;20067;-70
2023/06/06 01:07:07;;;;;;;3.25;2.60;;;;;;;17.31;59.62;98645.63;5054244;28;20028;-71
2023/06/06 01:09:33;;;;;;;6.35;2.90;;;;;;;17.31;59.40;98637.31;5053682;28;20025;-70
2023/06/06 01:12:03;;;;;;;4.70;2.70;;;;;;;17.30;59.43;98642.03;5053798;28;20098;-70
2023/06/06 01:14:28;;;;;;;6.25;3.00;;;;;;;17.29;59.19;98640.41;5053873;28;20024;-70
2023/06/06 01:16:57;;;;;;;3.55;2.58;;;;;;;17.29;58.99;98636.84;5053489;28;20028;-70
2023/06/06 01:19:29;;;;;;;3.53;2.60;;;;;;;17.28;58.64;98630.47;5053487;28;20021;-70
2023/06/06 01:21:57;;;;;;;4.85;2.42;;;;;;;17.26;58.92;98633.59;5053200;28;20033;-70
2023/06/06 01:24:24;;;;;;;4.85;2.20;;;;;;;17.24;58.37;98630.34;5053471;28;20035;-70
2023/06/06 01:26:50;;;;;;;4.13;2.42;;;;;;;17.20;58.66;98634.09;5053686;28;20113;-71
2023/06/06 01:29:15;;;;;;;6.13;2.55;;;;;;;17.17;58.65;98632.00;5053391;28;20068;-70
2023/06/06 01:31:43;;;;;;;4.22;2.55;;;;;;;17.15;58.61;98642.63;5053321;28;20108;-70
2023/06/06 01:34:55;;;;;;;3.58;2.50;;;;;;;17.07;58.25;98658.16;5053131;28;20043;-70
2023/06/06 01:37:41;;;;;;;3.88;2.60;;;;;;;17.02;58.19;98650.03;5053144;28;20036;-70
2023/06/06 01:40:09;;;;;;;3.60;2.42;;;;;;;17.00;58.36;98655.09;5053298;28;20119;-70
2023/06/06 01:42:40;;;;;;;5.05;2.38;;;;;;;16.98;58.59;98665.69;5052872;28;20044;-70
2023/06/06 01:45:08;;;;;;;4.35;2.38;;;;;;;16.99;58.42;98654.31;5053295;28;20017;-70
2023/06/06 01:47:35;;;;;;;4.78;2.88;;;;;;;16.99;58.35;98656.25;5053246;28;20025;-70
2023/06/06 01:50:03;;;;;;;4.20;2.85;;;;;;;16.97;58.35;98656.59;5052988;28;20029;-70
2023/06/06 01:52:28;;;;;;;5.78;3.72;;;;;;;16.99;58.24;98656.25;5053219;28;20025;-70
2023/06/06 01:54:55;;;;;;;4.68;2.72;;;;;;;16.96;58.59;98654.97;5052974;28;20495;-70
2023/06/06 01:57:21;;;;;;;4.97;3.10;;;;;;;16.94;58.43;98649.72;5053983;28;20039;-70
2023/06/06 01:59:46;;;;;;;4.80;2.80;;;;;;;16.94;58.74;98654.44;5057216;28;20029;-70
2023/06/06 02:02:12;;;;;;;4.57;3.22;;;;;;;16.92;58.66;98659.50;5055751;28;20063;-70
2023/06/06 02:04:37;;;;;;;7.10;2.97;;;;;;;16.92;58.88;98653.97;5050646;28;20037;-70
2023/06/06 02:07:03;;;;;;;4.10;2.90;;;;;;;16.91;58.76;98661.47;5056956;28;20028;-70
2023/06/06 02:09:28;;;;;;;4.32;2.97;;;;;;;16.89;58.69;98657.41;5057045;28;20521;-71
2023/06/06 02:11:53;;;;;;;5.15;3.55;;;;;;;16.88;58.85;98655.78;5056951;28;20114;-70
2023/06/06 02:14:19;;;;;;;7.70;3.58;;;;;;;16.88;59.37;98656.63;5055560;28;20044;-71
2023/06/06 02:16:48;;;;;;;6.50;4.07;;;;;;;16.85;59.08;98659.22;5056832;28;20103;-70
2023/06/06 02:19:15;;;;;;;6.45;4.05;;;;;;;16.81;58.94;98653.53;5056738;28;20504;-70
2023/06/06 02:21:40;;;;;;;5.60;3.90;;;;;;;16.79;59.17;98656.63;5056758;28;20065;-70
2023/06/06 02:24:06;;;;;;;4.68;3.30;;;;;;;16.77;59.04;98655.34;5056593;28;20104;-69
2023/06/06 02:26:31;;;;;;;5.53;3.40;;;;;;;16.74;59.39;98651.28;5056636;28;20127;-70
2023/06/06 02:28:57;;;;;;;6.43;3.90;;;;;;;16.74;60.00;98647.72;5056586;28;20025;-70
2023/06/06 02:31:26;;;;;;;4.05;3.60;;;;;;;16.71;59.93;98643.63;5056525;28;20029;-70
2023/06/06 02:33:51;;;;;;;6.97;3.77;;;;;;;16.69;60.01;98645.94;5056598;28;20078;-70
2023/06/06 02:36:18;;;;;;;6.50;3.95;;;;;;;16.67;59.81;98648.25;5056508;28;20021;-70
2023/06/06 02:38:43;;;;;;;7.13;3.70;;;;;;;16.64;60.31;98635.84;5056457;28;20032;-70
2023/06/06 02:41:09;;;;;;;5.38;3.60;;;;;;;16.64;60.46;98638.63;5056090;28;20045;-70
2023/06/06 02:43:35;;;;;;;5.97;3.17;;;;;;;16.63;60.24;98637.00;5056495;28;20060;-70
2023/06/06 02:46:01;;;;;;;5.20;3.10;;;;;;;16.62;60.74;98645.66;5056249;28;20473;-70
2023/06/06 02:48:27;;;;;;;4.60;3.00;;;;;;;16.59;60.58;98638.81;5056526;28;20132;-70
2023/06/06 02:50:52;;;;;;;5.00;3.35;;;;;;;16.56;60.83;98642.22;5056227;28;20417;-70
2023/06/06 02:53:18;;;;;;;6.35;3.00;;;;;;;16.54;60.84;98638.19;5054894;28;20104;-70
2023/06/06 02:55:44;;;;;;;5.72;3.17;;;;;;;16.53;60.63;98645.66;5056093;28;20428;-70
2023/06/06 02:58:29;;;;;;;5.22;3.38;;;;;;;16.51;60.83;98646.00;5056139;28;20025;-70
2023/06/06 03:00:58;;;;;;;7.43;3.70;;;;;;;16.52;61.16;98646.81;5056017;28;20025;-70
2023/06/06 03:03:24;;;;;;;;;;;;;;;16.53;60.99;98642.91;5056446;28;20025;-70
2023/06/06 03:05:51;;;;;;;6.93;4.80;;;;;;;16.52;60.90;98644.88;5055908;28;20365;-71
2023/06/06 03:08:19;;;;;;;8.20;5.00;;;;;;;16.50;61.25;98649.91;5055574;28;20021;-70
2023/06/06 03:10:48;;;;;;;10.68;5.10;;;;;;;16.50;61.36;98649.13;5055166;28;20492;-70
2023/06/06 03:13:14;;;;;;;11.02;4.68;;;;;;;16.51;61.35;98653.47;5055762;28;20108;-70
2023/06/06 03:15:40;;;;;;;8.50;4.90;;;;;;;16.50;61.10;98649.91;5054442;28;20429;-70
2023/06/06 03:18:11;;;;;;;8.32;4.93;;;;;;;16.49;61.11;98642.75;5055563;28;20029;-71
2023/06/06 03:20:39;;;;;;;6.72;4.28;;;;;;;16.49;61.26;98653.03;5055631;28;20025;-71
2023/06/06 03:23:06;;;;;;;11.35;4.93;;;;;;;16.50;61.47;98646.34;5055471;28;20029;-71
2023/06/06 03:25:33;;;;;;;10.73;5.80;;;;;;;16.50;61.48;98643.59;5055864;28;20033;-71
2023/06/06 03:28:01;;;;;;;9.35;5.07;;;;;;;16.51;61.40;98647.94;5055583;28;20013;-70
2023/06/06 03:30:27;;;;;;;7.38;4.85;;;;;;;16.52;61.11;98642.09;5055513;28;20024;-70
2023/06/06 03:32:52;;;;;;;11.38;4.65;;;;;;;16.54;60.97;98643.72;5055300;28;20060;-70
2023/06/06 03:35:18;;;;;;;7.25;4.40;;;;;;;16.51;61.50;98643.25;5055307;28;20029;-70
2023/06/06 03:37:44;;;;;;;5.82;4.13;;;;;;;16.55;61.64;98639.81;5055675;28;20210;-70
2023/06/06 03:40:10;;;;;;;8.15;4.03;;;;;;;16.56;61.66;98647.78;5055070;28;20447;-71
2023/06/06 03:42:35;;;;;;;9.43;3.92;;;;;;;16.56;61.37;98653.31;5055149;28;20025;-70
2023/06/06 03:45:01;;;;;;;9.45;4.63;;;;;;;16.57;61.80;98635.56;5055421;28;20021;-70
2023/06/06 03:47:26;;;;;;;10.18;4.78;;;;;;;16.60;61.64;98647.94;5055400;28;20051;-70
2023/06/06 03:49:51;;;;;;;10.57;5.10;;;;;;;16.62;61.34;98642.88;5055016;28;20029;-70
2023/06/06 03:52:17;;;;;;;10.85;5.15;;;;;;;16.62;61.26;98640.91;5055116;28;20104;-70
2023/06/06 03:54:42;;;;;;;9.60;5.03;;;;;;;16.62;61.91;98635.38;5055112;28;20087;-71
2023/06/06 03:57:11;;;;;;;8.13;4.00;;;;;;;16.64;61.28;98640.59;5054784;28;20017;-70
2023/06/06 03:59:36;;;;;;;10.77;4.20;;;;;;;16.64;61.50;98641.38;5051756;28;20060;-71
2023/06/06 04:02:02;;;;;;;6.25;3.75;;;;;;;16.65;61.45;98640.25;5053976;28;20107;-71
2023/06/06 04:04:28;;;;;;;6.55;3.38;;;;;;;16.66;61.30;98632.75;5052987;28;20189;-71
2023/06/06 04:06:53;;;;;;;5.43;3.40;;;;;;;16.68;61.55;98636.00;5053793;28;20032;-71
2023/06/06 04:09:18;;;;;;;5.32;3.25;;;;;;;16.69;61.33;98640.41;5054704;28;20025;-70
2023/06/06 04:11:44;;;;;;;5.90;3.88;;;;;;;16.69;61.28;98639.59;5054753;28;20025;-70
2023/06/06 04:14:13;;;;;;;6.28;3.20;;;;;;;16.69;61.20;98637.63;5054718;28;20039;-71
2023/06/06 04:16:40;;;;;;;5.60;3.22;;;;;;;16.72;61.33;98647.22;5054936;28;20021;-71
2023/06/06 04:19:06;;;;;;;5.68;3.28;;;;;;;16.73;61.43;98641.34;5054479;28;20490;-71
2023/06/06 04:21:32;;;;;;;5.88;3.58;;;;;;;16.76;60.83;98631.56;5054305;28;20021;-71
2023/06/06 04:23:58;;;;;;;5.85;3.63;;;;;;;16.77;60.88;98639.53;5054709;28;20453;-71
2023/06/06 04:26:24;;;;;;;5.13;3.20;;;;;;;16.80;61.25;98630.56;5054370;28;20150;-71
2023/06/06 04:28:53;;;;;;;6.65;3.47;;;;;;;16.82;60.79;98627.47;5054699;28;20035;-70
2023/06/06 04:31:23;;;;;;;5.88;3.60;;;;;;;16.82;60.84;98631.03;5054643;28;20056;-70
2023/06/06 04:33:53;;;;;;;;;;;;;;;16.86;60.95;98633.16;5054875;28;20028;-70
2023/06/06 04:36:23;;;;;;;6.18;3.65;;;;;;;16.87;60.71;98632.00;5054504;28;19917;-70
2023/06/06 04:38:49;;;;;;;6.30;3.30;;;;;;;16.88;60.90;98626.16;5054201;28;20021;-70
2023/06/06 04:41:16;;;;;;;4.32;3.38;;;;;;;16.90;61.12;98626.63;5053737;28;20096;-70
2023/06/06 04:43:42;;;;;;;6.60;3.90;;;;;;;16.91;60.83;98632.97;5054045;28;20040;-71
2023/06/06 04:46:08;;;;;;;6.90;3.75;;;;;;;16.95;61.34;98633.91;5053841;28;20462;-70
2023/06/06 04:48:33;;;;;;;5.75;3.80;;;;;;;16.99;61.48;98626.59;5054034;28;20036;-70
2023/06/06 04:50:59;;;;;;;6.20;3.40;;;;;;;17.03;61.16;98633.09;5053919;28;20025;-70
2023/06/06 04:53:25;;;;;;;6.05;3.70;;;;;;;17.06;61.15;98631.59;5054178;28;20029;-70
2023/06/06 04:55:54;;;;;;;5.97;3.58;;;;;;;17.07;61.21;98639.59;5054076;28;20112;-70
2023/06/06 04:58:20;;;;;;;6.57;3.20;;;;;;;17.07;60.97;98633.22;5053961;28;20102;-70
2023/06/06 05:00:46;;;;;;;4.57;2.95;;;;;;;17.09;61.49;98639.25;5053773;28;20075;-71
2023/06/06 05:03:16;;;;;;;5.10;3.42;;;;;;;17.13;61.32;98631.06;5053681;28;20029;-71
2023/06/06 05:05:41;;;;;;;;;;;;;;;17.17;61.11;98630.06;5054092;28;20029;-71
2023/06/06 05:08:06;;;;;;;5.55;3.45;;;;;;;17.20;60.95;98629.41;5053602;28;20015;-71
2023/06/06 05:10:32;;;;;;;5.22;3.35;;;;;;;17.26;61.06;98635.53;5053848;28;20021;-70
2023/06/06 05:12:57;;;;;;;5.25;3.50;;;;;;;17.31;60.80;98637.31;5053542;28;20043;-70
2023/06/06 05:15:22;;;;;;;7.10;3.47;;;;;;;17.34;60.73;98631.91;5053383;28;20061;-70
2023/06/06 05:17:55;;;;;;;7.20;3.45;;;;;;;17.40;60.84;98624.19;5053537;28;20025;-71
2023/06/06 05:20:23;;;;;;;5.35;3.47;;;;;;;17.47;60.69;98631.97;5052214;28;20477;-70
2023/06/06 05:22:51;;;;;;;5.18;3.38;;;;;;;17.51;60.50;98633.72;5053194;28;20025;-71
2023/06/06 05:25:17;;;;;;;7.35;3.53;;;;;;;17.54;60.64;98633.06;5053586;28;20037;-70
2023/06/06 05:27:42;;;;;;;6.45;3.13;;;;;;;17.59;60.38;98634.00;5053355;28;20068;-70
2023/06/06 05:30:08;;;;;;;4.93;3.00;;;;;;;17.63;60.51;98632.19;5053282;28;20029;-70
2023/06/06 05:32:33;;;;;;;6.38;3.30;;;;;;;17.64;59.92;98631.03;5052719;28;20025;-71
2023/06/06 05:35:01;;;;;;;4.90;3.05;;;;;;;17.65;59.73;98627.09;5052042;28;20025;-71
2023/06/06 05:37:28;;;;;;;6.07;3.35;;;;;;;17.68;59.71;98634.75;5053159;28;20105;-70
2023/06/06 05:39:53;;;;;;;5.85;3.47;;;;;;;17.69;59.73;98623.31;5052793;28;20036;-70
2023/06/06 05:42:19;;;;;;;5.35;3.25;;;;;;;17.72;59.58;98624.59;5053105;28;20025;-71
2023/06/06 05:44:44;;;;;;;8.07;3.20;;;;;;;17.75;59.69;98631.41;5053074;28;20059;-71
2023/06/06 05:47:10;;;;;;;5.75;3.50;;;;;;;17.77;59.85;98634.66;5052922;28;20482;-71
2023/06/06 05:49:35;;;;;;;5.32;3.30;;;;;;;17.80;59.58;98636.75;5052969;28;20401;-71
2023/06/06 05:52:02;;;;;;;6.65;3.30;;;;;;;17.82;59.34;98634.47;5053317;28;20382;-71
2023/06/06 05:54:28;;;;;;;7.03;3.33;;;;;;;17.86;59.42;98640.94;5053296;28;20063;-70
2023/06/06 05:56:56;;;;;;;5.22;3.55;;;;;;;17.88;59.26;98646.16;5053045;28;20029;-70
2023/06/06 05:59:21;;;;;;;5.25;3.25;;;;;;;17.86;59.09;98638.97;5052946;28;20363;-71
2023/06/06 06:01:49;;;;;;;5.57;3.47;;;;;;;17.85;58.96;98637.34;5052682;28;20036;-71
2023/06/06 06:04:17;;;;;;;5.53;3.50;;;;;;;17.88;58.89;98641.41;5052877;28;20036;-71
2023/06/06 06:06:46;;;;;;;7.38;3.45;;;;;;;17.89;59.04;98640.28;5053048;28;20044;-70
2023/06/06 06:09:16;;;;;;;5.75;3.50;;;;;;;17.93;59.20;98638.41;5053035;28;20452;-71
2023/06/06 06:11:42;;;;;;;5.00;3.10;;;;;;;17.97;59.25;98635.78;5052771;28;20531;-71
2023/06/06 06:14:08;;;;;;;6.32;3.05;;;;;;;18.02;59.05;98638.38;5052702;28;20025;-71
2023/06/06 06:16:33;;;;;;;7.60;3.40;;;;;;;18.08;58.99;98634.25;5052788;28;20131;-71
2023/06/06 06:18:58;;;;;;;6.00;3.10;;;;;;;18.15;58.95;98626.13;5040767;28;20029;-71
2023/06/06 06:21:25;;;;;;;12.65;3.30;;;;;;;18.21;58.73;98628.69;5041088;28;20143;-71
2023/06/06 06:23:51;;;;;;;9.00;3.10;;;;;;;18.27;58.91;98635.66;5035366;28;20031;-70
2023/06/06 06:26:17;;;;;;;6.25;3.25;;;;;;;18.33;58.96;98625.97;5051387;28;20083;-71
2023/06/06 06:28:42;;;;;;;5.45;3.35;;;;;;;18.38;58.67;98625.75;5052863;28;20025;-70
2023/06/06 06:31:08;;;;;;;4.80;3.05;;;;;;;18.46;58.82;98635.13;5052878;28;20037;-71
2023/06/06 06:33:34;;;;;;;5.78;3.60;;;;;;;18.51;58.35;98621.00;5052757;28;20087;-71
2023/06/06 06:36:00;;;;;;;7.82;3.47;;;;;;;18.56;58.27;98639.41;5049714;28;20028;-71
2023/06/06 06:38:26;;;;;;;7.15;3.35;;;;;;;18.60;58.31;98624.50;5052348;28;20047;-71
2023/06/06 06:40:53;;;;;;;7.78;3.60;;;;;;;18.65;58.18;98634.56;5044275;28;20557;-67
2023/06/06 06:43:18;;;;;;;5.03;3.30;;;;;;;18.69;58.26;98621.59;5076769;28;20397;-69
2023/06/06 06:45:43;;;;;;;7.63;3.72;;;;;;;18.74;57.97;98626.94;5037515;28;20030;-69
2023/06/06 06:48:09;;;;;;;5.72;3.10;;;;;;;18.80;58.01;98635.03;5035929;28;20033;-69
2023/06/06 06:50:34;;;;;;;8.55;3.30;;;;;;;18.85;58.08;98632.03;5036010;28;20037;-69
2023/06/06 06:53:02;;;;;;;5.97;3.80;;;;;;;18.88;57.94;98629.34;5036023;28;20049;-68
2023/06/06 06:55:28;;;;;;;6.20;3.70;;;;;;;18.92;57.76;98631.44;5035982;28;20053;-69
2023/06/06 06:57:53;;;;;;;5.38;3.05;;;;;;;18.97;57.78;98628.47;5034460;28;20053;-70
2023/06/06 07:00:23;;;;;;;5.70;3.38;;;;;;;19.03;57.80;98627.06;5036064;28;20029;-69
2023/06/06 07:02:50;;;;;;;5.18;3.40;;;;;;;19.13;58.09;98631.34;5034815;28;20091;-68
2023/06/06 07:05:16;;;;;;;7.30;3.30;;;;;;;19.18;57.81;98626.34;5036238;28;20029;-69
2023/06/06 07:07:52;;;;;;;8.55;3.67;;;;;;;19.24;57.56;98629.72;5038990;28;20474;-69
2023/06/06 07:10:19;;;;;;;5.25;3.28;;;;;;;19.31;57.34;98629.94;5046985;28;20025;-69
2023/06/06 07:12:50;;;;;;;4.93;3.30;;;;;;;19.37;57.14;98626.88;5043268;28;20480;-69
2023/06/06 07:15:16;;;;;;;7.18;4.13;;;;;;;19.42;56.87;98627.47;5048127;28;20040;-69
2023/06/06 07:17:51;;;;;;;8.52;3.97;;;;;;;19.49;57.12;98627.69;5038749;28;20521;-69
2023/06/06 07:20:23;;;;;;;9.88;3.72;;;;;;;19.56;56.72;98632.63;5036131;28;20030;-68
2023/06/06 07:22:50;;;;;;;5.72;3.67;;;;;;;19.60;56.43;98622.44;5055279;28;20465;-68
2023/06/06 07:25:16;;;;;;;9.85;3.80;;;;;;;19.62;56.34;98625.66;5052800;28;20104;-70
2023/06/06 07:27:41;;;;;;;5.72;3.53;;;;;;;19.68;56.18;98622.66;5044832;28;20093;-70
2023/06/06 07:30:12;;;;;;;5.82;3.20;;;;;;;19.68;55.81;98628.22;5050795;28;20044;-69
2023/06/06 07:32:42;;;;;;;7.63;3.50;;;;;;;19.70;55.91;98623.09;5044671;28;20018;-70
2023/06/06 07:35:13;;;;;;;7.40;3.45;;;;;;;19.71;55.73;98627.50;5035336;28;20485;-70
2023/06/06 07:37:39;;;;;;;5.78;3.83;;;;;;;19.73;55.70;98627.97;5035393;28;20030;-69
2023/06/06 07:40:07;;;;;;;6.28;3.85;;;;;;;19.76;55.90;98632.81;5034586;28;20052;-68
2023/06/06 07:42:32;;;;;;;7.18;3.70;;;;;;;;;;5034991;28;20378;-70
2023/06/06 07:44:58;;;;;;;5.63;3.65;;;;;;;19.81;55.64;98626.97;5035445;28;20021;-70
2023/06/06 07:47:24;;;;;;;6.35;3.72;;;;;;;19.88;55.69;98624.44;5035124;28;20099;-69
2023/06/06 07:49:52;;;;;;;7.95;3.78;;;;;;;19.93;55.52;98624.19;5034796;28;20030;-69
2023/06/06 07:52:17;;;;;;;5.80;3.88;;;;;;;19.98;55.52;98620.31;5035242;28;20189;-69
2023/06/06 07:54:43;;;;;;;5.72;4.05;;;;;;;20.02;55.40;98618.44;5034518;28;20057;-69
2023/06/06 07:57:09;;;;;;;7.32;3.80;;;;;;;20.11;55.53;98629.44;5035089;28;20036;-70
2023/06/06 07:59:35;;;;;;;7.55;3.90;;;;;;;20.17;54.92;98624.41;5042432;28;20129;-69
2023/06/06 08:02:01;;;;;;;6.70;4.10;;;;;;;20.22;55.06;98621.38;5055761;28;20037;-69
2023/06/06 08:04:26;;;;;;;6.78;3.95;;;;;;;20.27;54.84;98625.84;5052525;28;20090;-71
2023/06/06 08:06:53;;;;;;;10.10;3.97;;;;;;;20.35;54.60;98625.72;5052289;28;20492;-69
2023/06/06 08:09:19;;;;;;;8.20;4.03;;;;;;;20.44;54.67;98625.53;5054284;28;20111;-68
2023/06/06 08:11:44;;;;;;;7.40;3.85;;;;;;;20.52;54.49;98629.28;5046530;28;20112;-70
2023/06/06 08:14:10;;;;;;;8.10;4.20;;;;;;;20.56;54.24;98619.06;5048694;28;20124;-69
2023/06/06 08:16:37;;;;;;;9.63;4.10;;;;;;;20.57;53.85;98622.66;5052462;28;20028;-71
2023/06/06 08:19:03;;;;;;;8.23;4.20;;;;;;;20.61;53.81;98623.53;5052282;28;20481;-73
2023/06/06 08:21:28;;;;;;;5.53;3.88;;;;;;;20.67;53.61;98624.88;5059998;28;20151;-71
2023/06/06 08:23:55;;;;;;;8.27;4.10;;;;;;;20.70;53.43;98617.81;5053266;28;20436;-69
2023/06/06 08:26:25;;;;;;;9.77;4.43;;;;;;;20.71;53.48;98605.47;5054551;28;20028;-69
2023/06/06 08:28:50;;;;;;;7.40;3.70;;;;;;;20.77;53.15;98609.66;5047783;28;20029;-69
2023/06/06 08:31:16;;;;;;;6.28;4.15;;;;;;;20.79;52.78;98621.22;5048642;28;20527;-68
2023/06/06 08:33:42;;;;;;;7.40;4.00;;;;;;;20.79;52.96;98612.84;5053104;28;20056;-69
2023/06/06 08:36:08;;;;;;;8.55;4.20;;;;;;;20.81;52.94;98619.72;5051003;28;20030;-68
2023/06/06 08:38:33;;;;;;;6.68;4.43;;;;;;;20.83;53.03;98608.19;5048567;28;20037;-68
2023/06/06 08:41:00;;;;;;;7.70;4.22;;;;;;;20.86;52.54;98615.81;5050340;28;20044;-68
2023/06/06 08:43:27;;;;;;;9.00;4.22;;;;;;;20.91;52.75;98609.19;5052990;28;20039;-68
2023/06/06 08:45:56;;;;;;;9.65;4.40;;;;;;;20.91;52.93;98607.19;5052646;28;20025;-68
2023/06/06 08:48:26;;;;;;;9.60;3.88;;;;;;;20.94;52.90;98608.47;5055106;28;20060;-69
2023/06/06 08:50:52;;;;;;;7.35;4.38;;;;;;;20.97;52.89;98608.53;5053943;28;20021;-69
2023/06/06 08:53:19;;;;;;;7.65;4.13;;;;;;;21.04;53.01;98607.09;5053091;28;20178;-69
2023/06/06 08:55:44;;;;;;;9.38;4.25;;;;;;;21.10;52.97;98606.44;5053378;28;20511;-69
2023/06/06 08:58:11;;;;;;;8.35;3.80;;;;;;;21.16;52.51;98614.50;5053255;28;20033;-69
2023/06/06 09:00:37;;;;;;;6.90;4.00;;;;;;;21.26;52.84;98611.97;5048948;28;20059;-69
2023/06/06 09:03:06;;;;;;;8.75;4.63;;;;;;;21.36;53.02;98606.97;5042038;28;20056;-68
2023/06/06 09:05:32;;;;;;;8.52;4.40;;;;;;;21.42;52.82;98605.53;5046594;28;20024;-68
2023/06/06 09:07:58;;;;;;;9.40;4.50;;;;;;;21.52;52.93;98607.75;5049174;28;20017;-68
2023/06/06 09:10:24;;;;;;;7.68;4.90;;;;;;;21.60;52.79;98608.69;5051453;28;20032;-68
2023/06/06 09:12:50;;;;;;;8.52;4.43;;;;;;;21.65;52.50;98604.81;5049252;28;20025;-68
2023/06/06 09:15:15;;;;;;;7.40;4.70;;;;;;;21.66;51.91;98610.06;5048758;28;20032;-67
2023/06/06 09:17:44;;;;;;;8.65;5.15;;;;;;;21.69;52.49;98609.31;5050867;28;20374;-67
2023/06/06 09:20:12;;;;;;;7.72;5.10;;;;;;;21.71;52.19;98606.16;5046141;28;20033;-69
2023/06/06 09:22:42;;;;;;;7.45;4.55;;;;;;;21.78;52.38;98611.88;5047811;28;20041;-69
2023/06/06 09:25:21;;;;;;;8.48;4.78;;;;;;;21.80;52.23;98609.53;5047245;28;20029;-70
2023/06/06 09:27:48;;;;;;;9.52;5.40;;;;;;;21.82;52.10;98607.19;5048989;28;20113;-69
2023/06/06 09:30:20;;;;;;;7.28;4.70;;;;;;;21.86;52.08;98610.84;5046086;28;20047;-69
2023/06/06 09:32:46;;;;;;;7.18;4.47;;;;;;;21.92;52.04;98611.34;5046709;28;20078;-69
2023/06/06 09:35:15;;;;;;;9.35;4.88;;;;;;;21.96;51.86;98612.22;5047599;28;20493;-69
2023/06/06 09:37:40;;;;;;;10.13;4.63;;;;;;;21.97;51.31;98605.47;5057108;28;20054;-72
2023/06/06 09:40:16;;;;;;;5.80;4.45;;;;;;;21.99;51.29;98613.50;5053623;28;20029;-72
2023/06/06 09:42:47;;;;;;;5.93;4.20;;;;;;;22.00;51.29;98610.31;5050355;28;20052;-71
2023/06/06 09:45:17;;;;;;;8.35;4.43;;;;;;;22.01;51.29;98611.09;5051525;28;20110;-70
2023/06/06 09:47:45;;;;;;;10.68;4.30;;;;;;;22.05;51.10;98602.81;5052782;28;20116;-68
2023/06/06 09:50:13;;;;;;;6.63;4.03;;;;;;;22.08;50.89;98619.63;5049437;28;20037;-69
2023/06/06 09:52:39;;;;;;;7.88;3.83;;;;;;;22.11;50.79;98609.72;5047573;28;20506;-69
2023/06/06 09:55:15;;;;;;;10.13;4.22;;;;;;;22.12;50.88;98614.91;5050779;28;20035;-67
2023/06/06 09:57:40;;;;;;;7.07;4.13;;;;;;;22.15;50.77;98614.19;5050538;28;20119;-69
2023/06/06 10:00:14;;;;;;;7.03;3.83;;;;;;;22.19;50.79;98617.06;5053187;28;20109;-68
2023/06/06 10:02:43;;;;;;;7.20;3.95;;;;;;;22.21;50.51;98609.09;5054087;28;20397;-68
2023/06/06 10:05:13;;;;;;;5.82;3.88;;;;;;;22.23;49.95;98617.13;5051069;28;20043;-69
2023/06/06 10:07:41;;;;;;;8.55;3.90;;;;;;;22.22;49.93;98615.50;5052289;28;20499;-68
2023/06/06 10:10:17;;;;;;;6.90;3.78;;;;;;;22.16;49.90;98610.22;5047433;28;20029;-68
2023/06/06 10:12:43;;;;;;;7.85;4.13;;;;;;;22.16;50.18;98615.00;5051365;28;20025;-68
2023/06/06 10:15:11;;;;;;;8.82;3.90;;;;;;;22.14;49.60;98608.97;5051407;28;20105;-68
2023/06/06 10:17:41;;;;;;;8.15;3.80;;;;;;;22.13;49.48;98601.78;5046335;28;20074;-68
2023/06/06 10:20:12;;;;;;;5.90;3.58;;;;;;;22.12;49.17;98605.75;5054681;28;20025;-68
2023/06/06 10:22:39;;;;;;;10.77;3.95;;;;;;;22.11;49.18;98601.34;5053157;28;20424;-68
2023/06/06 10:25:12;;;;;;;7.65;3.90;;;;;;;22.12;49.29;98602.97;5053681;28;20044;-68
2023/06/06 10:27:46;;;;;;;7.88;3.63;;;;;;;22.13;49.05;98605.38;5049550;28;20119;-68
2023/06/06 10:30:37;;;;;;;8.00;3.97;;;;;;;22.14;49.05;98603.41;5049740;28;20067;-67
2023/06/06 10:33:08;;;;;;;7.80;3.88;;;;;;;22.18;48.78;98598.69;5044941;28;20022;-67
2023/06/06 10:35:36;;;;;;;5.32;3.88;;;;;;;22.18;48.78;98601.47;5046026;28;21642;-68
2023/06/06 10:38:04;;;;;;;7.38;4.38;;;;;;;22.17;48.95;98597.06;5038751;28;20052;-68
2023/06/06 10:40:54;;;;;;;9.43;5.18;;;;;;;22.20;49.27;98598.31;5039964;28;20450;-67
2023/06/06 10:43:43;;;;;;;7.97;4.53;;;;;;;22.21;49.02;98597.91;5071917;28;20411;-66
2023/06/06 10:46:10;;;;;;;6.97;3.60;;;;;;;22.22;49.09;98602.31;5056414;28;20033;-67
2023/06/06 10:48:43;;;;;;;36.53;5.40;;;;;;;22.24;49.15;98602.75;5055892;28;20064;-67
2023/06/06 10:51:32;;;;;;;9.18;4.00;;;;;;;22.25;48.92;98598.78;5056095;28;20036;-68
2023/06/06 10:54:21;;;;;;;5.53;4.05;;;;;;;22.28;49.32;98600.06;5056146;28;20517;-68
2023/06/06 10:56:47;;;;;;;9.20;4.63;;;;;;;22.35;49.22;98600.19;5055933;28;20083;-68
2023/06/06 10:59:14;;;;;;;7.00;4.18;;;;;;;22.44;49.17;98597.94;5055607;28;20028;-68
2023/06/06 11:01:41;;;;;;;9.43;4.05;;;;;;;22.54;49.17;98602.13;5055445;28;20115;-67
2023/06/06 11:04:17;;;;;;;6.88;3.90;;;;;;;22.67;49.51;98587.94;5055408;28;20032;-69
2023/06/06 11:06:44;;;;;;;11.70;4.03;;;;;;;22.81;49.64;98599.38;5055693;28;20025;-69
2023/06/06 11:09:20;;;;;;;7.80;4.50;;;;;;;22.95;49.40;98589.59;5049868;28;20561;-68
2023/06/06 11:11:46;;;;;;;6.80;4.05;;;;;;;23.01;48.64;98586.09;5046030;28;20108;-68
2023/06/06 11:14:11;;;;;;;8.20;3.85;;;;;;;23.09;48.90;98584.19;5045664;28;20141;-68
2023/06/06 11:16:45;;;;;;;5.65;3.63;;;;;;;23.18;48.86;98592.31;5048629;28;20079;-68
2023/06/06 11:19:17;;;;;;;7.50;3.78;;;;;;;23.24;48.35;98588.00;5055443;28;20496;-68
2023/06/06 11:21:45;;;;;;;7.95;4.40;;;;;;;23.30;47.88;98588.50;5055552;28;20061;-69
2023/06/06 11:24:11;;;;;;;6.65;3.83;;;;;;;23.31;47.75;98588.13;5055254;28;20031;-69
2023/06/06 11:26:39;;;;;;;7.00;4.15;;;;;;;23.34;47.42;98595.75;5054279;28;20116;-70
2023/06/06 11:29:07;;;;;;;9.30;4.50;;;;;;;23.39;47.71;98585.41;5055867;28;20037;-68
2023/06/06 11:31:35;;;;;;;6.18;4.10;;;;;;;23.43;47.30;98587.09;5054343;28;20031;-68
2023/06/06 11:34:14;;;;;;;7.05;3.72;;;;;;;23.39;47.44;98589.03;5052988;28;20551;-69
2023/06/06 11:36:42;;;;;;;7.32;3.75;;;;;;;23.40;46.82;98590.66;5046542;28;20029;-69